sensor_id;sensor_type;location;lat;lon;timestamp;temperature;humidity
9219;DHT22;4644;48.858;9.184;2023-06-19T00:00:31;23.10;65.90
9219;DHT22;4644;48.858;9.184;2023-06-19T00:02:58;23.00;65.80
9219;DHT22;4644;48.858;9.184;2023-06-19T00:05:28;22.90;68.60
9219;DHT22;4644;48.858;9.184;2023-06-19T00:07:55;22.90;69.50
9219;DHT22;4644;48.858;9.184;2023-06-19T00:10:22;22.80;69.50
9219;DHT22;4644;48.858;9.184;2023-06-19T00:12:49;22.60;71.70
9219;DHT22;4644;48.858;9.184;2023-06-19T00:15:17;22.60;72.10
9219;DHT22;4644;48.858;9.184;2023-06-19T00:17:44;22.50;73.40
9219;DHT22;4644;48.858;9.184;2023-06-19T00:20:11;22.50;73.90
9219;DHT22;4644;48.858;9.184;2023-06-19T00:22:39;22.30;74.00
9219;DHT22;4644;48.858;9.184;2023-06-19T00:25:06;22.30;74.10
9219;DHT22;4644;48.858;9.184;2023-06-19T00:27:36;22.20;74.60
9219;DHT22;4644;48.858;9.184;2023-06-19T00:30:06;22.10;74.90
9219;DHT22;4644;48.858;9.184;2023-06-19T00:32:38;22.10;76.70
9219;DHT22;4644;48.858;9.184;2023-06-19T00:35:12;22.10;77.20
9219;DHT22;4644;48.858;9.184;2023-06-19T00:37:43;22.10;77.60
9219;DHT22;4644;48.858;9.184;2023-06-19T00:40:16;22.10;77.20
9219;DHT22;4644;48.858;9.184;2023-06-19T00:42:46;22.10;75.80
9219;DHT22;4644;48.858;9.184;2023-06-19T00:45:13;22.10;76.70
9219;DHT22;4644;48.858;9.184;2023-06-19T00:47:41;22.20;77.10
9219;DHT22;4644;48.858;9.184;2023-06-19T00:50:09;22.20;77.70
9219;DHT22;4644;48.858;9.184;2023-06-19T00:52:36;22.20;79.70
9219;DHT22;4644;48.858;9.184;2023-06-19T00:55:05;22.20;79.70
9219;DHT22;4644;48.858;9.184;2023-06-19T00:57:32;22.20;78.60
9219;DHT22;4644;48.858;9.184;2023-06-19T00:59:59;22.20;79.70
9219;DHT22;4644;48.858;9.184;2023-06-19T01:02:26;22.20;79.70
9219;DHT22;4644;48.858;9.184;2023-06-19T01:04:55;22.20;78.60
9219;DHT22;4644;48.858;9.184;2023-06-19T01:07:29;22.20;78.40
9219;DHT22;4644;48.858;9.184;2023-06-19T01:10:02;22.30;80.50
9219;DHT22;4644;48.858;9.184;2023-06-19T01:12:36;22.30;73.00
9219;DHT22;4644;48.858;9.184;2023-06-19T01:15:06;22.50;71.50
9219;DHT22;4644;48.858;9.184;2023-06-19T01:17:35;23.00;68.90
9219;DHT22;4644;48.858;9.184;2023-06-19T01:20:07;23.20;68.70
9219;DHT22;4644;48.858;9.184;2023-06-19T01:22:38;23.20;68.70
9219;DHT22;4644;48.858;9.184;2023-06-19T01:25:06;23.10;68.90
9219;DHT22;4644;48.858;9.184;2023-06-19T01:27:42;23.00;69.10
9219;DHT22;4644;48.858;9.184;2023-06-19T01:30:11;23.00;68.70
9219;DHT22;4644;48.858;9.184;2023-06-19T01:32:53;23.00;68.80
9219;DHT22;4644;48.858;9.184;2023-06-19T01:35:25;23.00;68.80
9219;DHT22;4644;48.858;9.184;2023-06-19T01:37:55;23.00;69.60
9219;DHT22;4644;48.858;9.184;2023-06-19T01:40:28;23.00;69.40
9219;DHT22;4644;48.858;9.184;2023-06-19T01:42:58;22.90;69.50
9219;DHT22;4644;48.858;9.184;2023-06-19T01:45:27;22.90;69.80
9219;DHT22;4644;48.858;9.184;2023-06-19T01:47:55;22.90;70.30
9219;DHT22;4644;48.858;9.184;2023-06-19T01:50:22;22.90;70.40
9219;DHT22;4644;48.858;9.184;2023-06-19T01:52:50;22.90;70.60
9219;DHT22;4644;48.858;9.184;2023-06-19T01:55:19;22.90;71.20
9219;DHT22;4644;48.858;9.184;2023-06-19T01:57:46;22.80;71.90
9219;DHT22;4644;48.858;9.184;2023-06-19T02:00:16;22.80;72.60
9219;DHT22;4644;48.858;9.184;2023-06-19T02:02:43;22.80;73.20
9219;DHT22;4644;48.858;9.184;2023-06-19T02:05:11;22.80;73.60
9219;DHT22;4644;48.858;9.184;2023-06-19T02:07:38;22.70;74.10
9219;DHT22;4644;48.858;9.184;2023-06-19T02:10:06;22.70;74.40
9219;DHT22;4644;48.858;9.184;2023-06-19T02:12:35;22.70;74.90
9219;DHT22;4644;48.858;9.184;2023-06-19T02:15:02;22.60;75.30
9219;DHT22;4644;48.858;9.184;2023-06-19T02:17:29;22.60;76.20
9219;DHT22;4644;48.858;9.184;2023-06-19T02:19:56;22.50;76.90
9219;DHT22;4644;48.858;9.184;2023-06-19T02:22:24;22.50;77.30
9219;DHT22;4644;48.858;9.184;2023-06-19T02:24:51;22.40;78.00
9219;DHT22;4644;48.858;9.184;2023-06-19T02:27:20;22.40;78.30
9219;DHT22;4644;48.858;9.184;2023-06-19T02:29:48;22.40;78.70
9219;DHT22;4644;48.858;9.184;2023-06-19T02:32:15;22.30;78.90
9219;DHT22;4644;48.858;9.184;2023-06-19T02:34:42;22.30;79.20
9219;DHT22;4644;48.858;9.184;2023-06-19T02:37:09;22.30;79.80
9219;DHT22;4644;48.858;9.184;2023-06-19T02:39:39;22.30;79.50
9219;DHT22;4644;48.858;9.184;2023-06-19T02:42:07;22.30;81.10
9219;DHT22;4644;48.858;9.184;2023-06-19T02:44:34;22.30;80.50
9219;DHT22;4644;48.858;9.184;2023-06-19T02:47:05;22.30;81.70
9219;DHT22;4644;48.858;9.184;2023-06-19T02:49:32;22.20;83.10
9219;DHT22;4644;48.858;9.184;2023-06-19T02:51:59;22.10;83.40
9219;DHT22;4644;48.858;9.184;2023-06-19T02:54:26;22.20;82.90
9219;DHT22;4644;48.858;9.184;2023-06-19T02:56:53;22.20;80.40
9219;DHT22;4644;48.858;9.184;2023-06-19T02:59:20;22.20;80.30
9219;DHT22;4644;48.858;9.184;2023-06-19T03:01:50;22.20;82.00
9219;DHT22;4644;48.858;9.184;2023-06-19T03:04:18;22.20;81.00
9219;DHT22;4644;48.858;9.184;2023-06-19T03:06:48;22.30;80.90
9219;DHT22;4644;48.858;9.184;2023-06-19T03:09:15;22.20;83.50
9219;DHT22;4644;48.858;9.184;2023-06-19T03:11:42;22.20;83.80
9219;DHT22;4644;48.858;9.184;2023-06-19T03:14:09;22.20;82.60
9219;DHT22;4644;48.858;9.184;2023-06-19T03:16:36;22.20;81.20
9219;DHT22;4644;48.858;9.184;2023-06-19T03:19:03;22.20;82.10
9219;DHT22;4644;48.858;9.184;2023-06-19T03:21:32;22.00;85.20
9219;DHT22;4644;48.858;9.184;2023-06-19T03:24:00;22.00;81.80
9219;DHT22;4644;48.858;9.184;2023-06-19T03:26:27;22.10;85.70
9219;DHT22;4644;48.858;9.184;2023-06-19T03:28:55;22.00;88.50
9219;DHT22;4644;48.858;9.184;2023-06-19T03:31:22;22.00;88.20
9219;DHT22;4644;48.858;9.184;2023-06-19T03:33:49;21.90;89.80
9219;DHT22;4644;48.858;9.184;2023-06-19T03:36:16;21.80;90.50
9219;DHT22;4644;48.858;9.184;2023-06-19T03:38:44;21.70;91.20
9219;DHT22;4644;48.858;9.184;2023-06-19T03:41:11;21.70;90.80
9219;DHT22;4644;48.858;9.184;2023-06-19T03:43:38;21.60;89.00
9219;DHT22;4644;48.858;9.184;2023-06-19T03:46:05;21.70;90.20
9219;DHT22;4644;48.858;9.184;2023-06-19T03:48:32;21.70;90.30
9219;DHT22;4644;48.858;9.184;2023-06-19T03:50:59;21.80;83.70
9219;DHT22;4644;48.858;9.184;2023-06-19T03:53:26;21.90;83.20
9219;DHT22;4644;48.858;9.184;2023-06-19T03:55:54;22.00;82.50
9219;DHT22;4644;48.858;9.184;2023-06-19T03:58:21;22.10;81.20
9219;DHT22;4644;48.858;9.184;2023-06-19T04:00:48;22.10;80.60
9219;DHT22;4644;48.858;9.184;2023-06-19T04:03:15;22.20;80.60
9219;DHT22;4644;48.858;9.184;2023-06-19T04:05:42;22.20;81.40
9219;DHT22;4644;48.858;9.184;2023-06-19T04:08:09;22.20;81.40
9219;DHT22;4644;48.858;9.184;2023-06-19T04:10:36;22.20;80.80
9219;DHT22;4644;48.858;9.184;2023-06-19T04:13:04;22.20;81.20
9219;DHT22;4644;48.858;9.184;2023-06-19T04:15:32;22.10;81.40
9219;DHT22;4644;48.858;9.184;2023-06-19T04:18:01;22.10;81.40
9219;DHT22;4644;48.858;9.184;2023-06-19T04:20:28;22.10;82.00
9219;DHT22;4644;48.858;9.184;2023-06-19T04:22:55;22.00;82.90
9219;DHT22;4644;48.858;9.184;2023-06-19T04:25:23;22.00;83.60
9219;DHT22;4644;48.858;9.184;2023-06-19T04:27:50;22.00;83.20
9219;DHT22;4644;48.858;9.184;2023-06-19T04:30:18;21.90;83.70
9219;DHT22;4644;48.858;9.184;2023-06-19T04:32:46;21.80;84.50
9219;DHT22;4644;48.858;9.184;2023-06-19T04:35:13;21.80;85.00
9219;DHT22;4644;48.858;9.184;2023-06-19T04:37:40;21.70;85.40
9219;DHT22;4644;48.858;9.184;2023-06-19T04:40:10;21.70;86.30
9219;DHT22;4644;48.858;9.184;2023-06-19T04:42:37;21.60;86.20
9219;DHT22;4644;48.858;9.184;2023-06-19T04:45:06;21.70;87.80
9219;DHT22;4644;48.858;9.184;2023-06-19T04:47:35;21.70;87.80
9219;DHT22;4644;48.858;9.184;2023-06-19T04:50:02;21.70;86.80
9219;DHT22;4644;48.858;9.184;2023-06-19T04:52:28;21.70;87.20
9219;DHT22;4644;48.858;9.184;2023-06-19T04:54:58;21.70;86.80
9219;DHT22;4644;48.858;9.184;2023-06-19T04:57:25;21.70;86.90
9219;DHT22;4644;48.858;9.184;2023-06-19T04:59:52;21.90;89.00
9219;DHT22;4644;48.858;9.184;2023-06-19T05:02:19;22.00;87.50
9219;DHT22;4644;48.858;9.184;2023-06-19T05:04:47;22.10;86.90
9219;DHT22;4644;48.858;9.184;2023-06-19T05:07:14;22.30;86.90
9219;DHT22;4644;48.858;9.184;2023-06-19T05:09:43;22.50;86.00
9219;DHT22;4644;48.858;9.184;2023-06-19T05:12:10;22.80;87.60
9219;DHT22;4644;48.858;9.184;2023-06-19T05:14:37;23.00;86.70
9219;DHT22;4644;48.858;9.184;2023-06-19T05:17:05;23.30;84.10
9219;DHT22;4644;48.858;9.184;2023-06-19T05:19:34;23.30;83.70
9219;DHT22;4644;48.858;9.184;2023-06-19T05:22:05;23.50;86.40
9219;DHT22;4644;48.858;9.184;2023-06-19T05:24:33;23.50;84.00
9219;DHT22;4644;48.858;9.184;2023-06-19T05:27:00;23.50;84.70
9219;DHT22;4644;48.858;9.184;2023-06-19T05:29:26;23.50;84.40
9219;DHT22;4644;48.858;9.184;2023-06-19T05:31:54;23.60;84.00
9219;DHT22;4644;48.858;9.184;2023-06-19T05:34:21;23.40;83.90
9219;DHT22;4644;48.858;9.184;2023-06-19T05:36:49;23.30;87.00
9219;DHT22;4644;48.858;9.184;2023-06-19T05:39:17;23.30;87.20
9219;DHT22;4644;48.858;9.184;2023-06-19T05:41:45;23.20;85.30
9219;DHT22;4644;48.858;9.184;2023-06-19T05:44:15;23.20;86.50
9219;DHT22;4644;48.858;9.184;2023-06-19T05:46:42;23.30;85.80
9219;DHT22;4644;48.858;9.184;2023-06-19T05:49:09;23.30;85.80
9219;DHT22;4644;48.858;9.184;2023-06-19T05:51:36;23.40;87.70
9219;DHT22;4644;48.858;9.184;2023-06-19T05:54:04;23.40;85.90
9219;DHT22;4644;48.858;9.184;2023-06-19T05:56:33;23.20;84.80
9219;DHT22;4644;48.858;9.184;2023-06-19T05:58:59;23.20;89.30
9219;DHT22;4644;48.858;9.184;2023-06-19T06:01:26;23.30;89.50
9219;DHT22;4644;48.858;9.184;2023-06-19T06:03:54;23.30;85.60
9219;DHT22;4644;48.858;9.184;2023-06-19T06:06:22;23.10;86.50
9219;DHT22;4644;48.858;9.184;2023-06-19T06:08:48;23.20;87.40
9219;DHT22;4644;48.858;9.184;2023-06-19T06:11:16;23.30;85.70
9219;DHT22;4644;48.858;9.184;2023-06-19T06:13:45;23.30;86.50
9219;DHT22;4644;48.858;9.184;2023-06-19T06:16:12;23.40;85.60
9219;DHT22;4644;48.858;9.184;2023-06-19T06:18:39;23.40;85.20
9219;DHT22;4644;48.858;9.184;2023-06-19T06:21:06;23.50;85.00
9219;DHT22;4644;48.858;9.184;2023-06-19T06:23:33;23.60;84.60
9219;DHT22;4644;48.858;9.184;2023-06-19T06:26:01;23.50;84.60
9219;DHT22;4644;48.858;9.184;2023-06-19T06:28:28;23.60;86.30
9219;DHT22;4644;48.858;9.184;2023-06-19T06:30:56;23.80;86.30
9219;DHT22;4644;48.858;9.184;2023-06-19T06:33:23;24.00;85.00
9219;DHT22;4644;48.858;9.184;2023-06-19T06:35:50;24.30;85.20
9219;DHT22;4644;48.858;9.184;2023-06-19T06:38:17;24.70;84.20
9219;DHT22;4644;48.858;9.184;2023-06-19T06:40:44;24.90;83.00
9219;DHT22;4644;48.858;9.184;2023-06-19T06:43:11;25.00;82.70
9219;DHT22;4644;48.858;9.184;2023-06-19T06:45:38;25.10;81.50
9219;DHT22;4644;48.858;9.184;2023-06-19T06:48:09;25.30;80.80
9219;DHT22;4644;48.858;9.184;2023-06-19T06:50:36;25.60;81.00
9219;DHT22;4644;48.858;9.184;2023-06-19T06:53:03;25.50;78.90
9219;DHT22;4644;48.858;9.184;2023-06-19T06:55:29;25.40;79.40
9219;DHT22;4644;48.858;9.184;2023-06-19T06:57:56;25.30;79.10
9219;DHT22;4644;48.858;9.184;2023-06-19T07:00:23;25.20;79.10
9219;DHT22;4644;48.858;9.184;2023-06-19T07:02:51;25.40;79.70
9219;DHT22;4644;48.858;9.184;2023-06-19T07:05:19;25.40;78.70
9219;DHT22;4644;48.858;9.184;2023-06-19T07:07:46;25.20;79.90
9219;DHT22;4644;48.858;9.184;2023-06-19T07:10:13;25.30;81.00
9219;DHT22;4644;48.858;9.184;2023-06-19T07:12:47;25.40;79.40
9219;DHT22;4644;48.858;9.184;2023-06-19T07:15:14;25.20;78.20
9219;DHT22;4644;48.858;9.184;2023-06-19T07:17:42;25.20;78.50
9219;DHT22;4644;48.858;9.184;2023-06-19T07:20:10;25.40;79.20
9219;DHT22;4644;48.858;9.184;2023-06-19T07:22:38;25.30;77.70
9219;DHT22;4644;48.858;9.184;2023-06-19T07:25:06;25.30;79.80
9219;DHT22;4644;48.858;9.184;2023-06-19T07:27:33;25.40;77.80
9219;DHT22;4644;48.858;9.184;2023-06-19T07:30:00;25.50;79.80
9219;DHT22;4644;48.858;9.184;2023-06-19T07:32:27;25.60;77.10
9219;DHT22;4644;48.858;9.184;2023-06-19T07:34:54;25.80;76.00
9219;DHT22;4644;48.858;9.184;2023-06-19T07:37:21;25.80;76.70
9219;DHT22;4644;48.858;9.184;2023-06-19T07:39:50;26.10;80.20
9219;DHT22;4644;48.858;9.184;2023-06-19T07:42:18;26.20;74.20
9219;DHT22;4644;48.858;9.184;2023-06-19T07:44:46;26.10;73.50
9219;DHT22;4644;48.858;9.184;2023-06-19T07:47:16;26.00;74.10
9219;DHT22;4644;48.858;9.184;2023-06-19T07:49:44;25.80;74.60
9219;DHT22;4644;48.858;9.184;2023-06-19T07:52:11;25.70;75.50
9219;DHT22;4644;48.858;9.184;2023-06-19T07:54:50;25.60;76.20
9219;DHT22;4644;48.858;9.184;2023-06-19T07:57:18;25.60;76.70
9219;DHT22;4644;48.858;9.184;2023-06-19T07:59:46;25.60;76.00
9219;DHT22;4644;48.858;9.184;2023-06-19T08:02:13;25.50;76.00
9219;DHT22;4644;48.858;9.184;2023-06-19T08:04:40;25.40;77.40
9219;DHT22;4644;48.858;9.184;2023-06-19T08:07:07;25.40;76.90
9219;DHT22;4644;48.858;9.184;2023-06-19T08:09:34;25.50;77.10
9219;DHT22;4644;48.858;9.184;2023-06-19T08:12:03;25.50;76.40
9219;DHT22;4644;48.858;9.184;2023-06-19T08:14:30;25.50;76.90
9219;DHT22;4644;48.858;9.184;2023-06-19T08:16:57;25.20;77.40
9219;DHT22;4644;48.858;9.184;2023-06-19T08:19:24;25.50;79.00
9219;DHT22;4644;48.858;9.184;2023-06-19T08:21:51;25.80;77.70
9219;DHT22;4644;48.858;9.184;2023-06-19T08:24:18;26.20;75.80
9219;DHT22;4644;48.858;9.184;2023-06-19T08:26:44;26.20;73.90
9219;DHT22;4644;48.858;9.184;2023-06-19T08:29:17;26.20;75.30
9219;DHT22;4644;48.858;9.184;2023-06-19T08:31:44;26.20;75.30
9219;DHT22;4644;48.858;9.184;2023-06-19T08:34:11;26.40;73.70
9219;DHT22;4644;48.858;9.184;2023-06-19T08:36:38;26.70;74.50
9219;DHT22;4644;48.858;9.184;2023-06-19T08:39:05;27.20;72.10
9219;DHT22;4644;48.858;9.184;2023-06-19T08:41:34;27.60;73.00
9219;DHT22;4644;48.858;9.184;2023-06-19T08:44:01;28.00;70.10
9219;DHT22;4644;48.858;9.184;2023-06-19T08:46:30;27.90;68.60
9219;DHT22;4644;48.858;9.184;2023-06-19T08:48:56;28.10;68.20
9219;DHT22;4644;48.858;9.184;2023-06-19T08:51:23;28.00;67.60
9219;DHT22;4644;48.858;9.184;2023-06-19T08:53:54;28.10;68.70
9219;DHT22;4644;48.858;9.184;2023-06-19T08:56:21;28.00;68.00
9219;DHT22;4644;48.858;9.184;2023-06-19T08:58:48;27.90;68.00
9219;DHT22;4644;48.858;9.184;2023-06-19T09:01:16;28.00;68.90
9219;DHT22;4644;48.858;9.184;2023-06-19T09:03:44;27.90;69.30
9219;DHT22;4644;48.858;9.184;2023-06-19T09:06:14;27.60;68.80
9219;DHT22;4644;48.858;9.184;2023-06-19T09:08:41;27.40;69.80
9219;DHT22;4644;48.858;9.184;2023-06-19T09:11:08;27.60;70.60
9219;DHT22;4644;48.858;9.184;2023-06-19T09:13:35;28.10;69.00
9219;DHT22;4644;48.858;9.184;2023-06-19T09:16:03;28.60;71.50
9219;DHT22;4644;48.858;9.184;2023-06-19T09:18:31;29.20;68.60
9219;DHT22;4644;48.858;9.184;2023-06-19T09:21:00;29.60;66.20
9219;DHT22;4644;48.858;9.184;2023-06-19T09:23:27;29.60;63.20
9219;DHT22;4644;48.858;9.184;2023-06-19T09:25:54;30.00;65.20
9219;DHT22;4644;48.858;9.184;2023-06-19T09:28:25;30.30;62.30
9219;DHT22;4644;48.858;9.184;2023-06-19T09:30:54;30.30;64.20
9219;DHT22;4644;48.858;9.184;2023-06-19T09:33:22;30.20;62.60
9219;DHT22;4644;48.858;9.184;2023-06-19T09:35:49;30.40;63.30
9219;DHT22;4644;48.858;9.184;2023-06-19T09:38:19;30.50;61.90
9219;DHT22;4644;48.858;9.184;2023-06-19T09:40:47;30.50;62.10
9219;DHT22;4644;48.858;9.184;2023-06-19T09:43:18;31.00;64.00
9219;DHT22;4644;48.858;9.184;2023-06-19T09:45:48;31.40;61.60
9219;DHT22;4644;48.858;9.184;2023-06-19T09:48:19;31.60;59.40
9219;DHT22;4644;48.858;9.184;2023-06-19T09:50:48;31.50;63.50
9219;DHT22;4644;48.858;9.184;2023-06-19T09:53:19;31.70;60.30
9219;DHT22;4644;48.858;9.184;2023-06-19T09:55:48;31.60;58.70
9219;DHT22;4644;48.858;9.184;2023-06-19T09:58:16;31.70;59.20
9219;DHT22;4644;48.858;9.184;2023-06-19T10:00:44;31.60;57.80
9219;DHT22;4644;48.858;9.184;2023-06-19T10:03:12;31.20;59.30
9219;DHT22;4644;48.858;9.184;2023-06-19T10:05:39;30.30;60.80
9219;DHT22;4644;48.858;9.184;2023-06-19T10:08:06;30.20;64.20
9219;DHT22;4644;48.858;9.184;2023-06-19T10:10:35;30.00;62.70
9219;DHT22;4644;48.858;9.184;2023-06-19T10:13:12;30.00;63.70
9219;DHT22;4644;48.858;9.184;2023-06-19T10:15:41;30.00;62.70
9219;DHT22;4644;48.858;9.184;2023-06-19T10:18:13;30.00;63.80
9219;DHT22;4644;48.858;9.184;2023-06-19T10:20:42;30.10;63.70
9219;DHT22;4644;48.858;9.184;2023-06-19T10:23:13;30.10;64.80
9219;DHT22;4644;48.858;9.184;2023-06-19T10:25:45;30.10;65.30
9219;DHT22;4644;48.858;9.184;2023-06-19T10:28:17;30.40;63.00
9219;DHT22;4644;48.858;9.184;2023-06-19T10:30:44;30.50;63.10
9219;DHT22;4644;48.858;9.184;2023-06-19T10:33:11;30.50;62.20
9219;DHT22;4644;48.858;9.184;2023-06-19T10:35:38;30.70;62.20
9219;DHT22;4644;48.858;9.184;2023-06-19T10:38:06;30.70;61.70
9219;DHT22;4644;48.858;9.184;2023-06-19T10:40:35;30.70;65.20
9219;DHT22;4644;48.858;9.184;2023-06-19T10:43:04;30.70;62.70
9219;DHT22;4644;48.858;9.184;2023-06-19T10:45:31;30.90;62.50
9219;DHT22;4644;48.858;9.184;2023-06-19T10:48:01;30.80;62.60
9219;DHT22;4644;48.858;9.184;2023-06-19T10:50:29;30.60;61.80
9219;DHT22;4644;48.858;9.184;2023-06-19T10:52:58;30.50;61.80
9219;DHT22;4644;48.858;9.184;2023-06-19T10:55:25;30.20;65.00
9219;DHT22;4644;48.858;9.184;2023-06-19T10:57:54;30.60;62.90
9219;DHT22;4644;48.858;9.184;2023-06-19T11:00:29;30.80;61.60
9219;DHT22;4644;48.858;9.184;2023-06-19T11:02:56;30.80;63.40
9219;DHT22;4644;48.858;9.184;2023-06-19T11:05:25;30.90;61.90
9219;DHT22;4644;48.858;9.184;2023-06-19T11:07:55;31.10;60.80
9219;DHT22;4644;48.858;9.184;2023-06-19T11:10:23;31.00;62.10
9219;DHT22;4644;48.858;9.184;2023-06-19T11:12:53;31.10;63.00
9219;DHT22;4644;48.858;9.184;2023-06-19T11:15:29;31.50;62.50
9219;DHT22;4644;48.858;9.184;2023-06-19T11:17:56;31.60;61.00
9219;DHT22;4644;48.858;9.184;2023-06-19T11:20:23;31.70;59.10
9219;DHT22;4644;48.858;9.184;2023-06-19T11:22:54;31.20;59.10
9219;DHT22;4644;48.858;9.184;2023-06-19T11:25:21;31.00;60.20
9219;DHT22;4644;48.858;9.184;2023-06-19T11:27:48;31.40;66.30
9219;DHT22;4644;48.858;9.184;2023-06-19T11:30:17;31.70;59.90
9219;DHT22;4644;48.858;9.184;2023-06-19T11:32:47;32.20;59.70
9219;DHT22;4644;48.858;9.184;2023-06-19T11:35:16;32.60;58.80
9219;DHT22;4644;48.858;9.184;2023-06-19T11:37:43;33.00;57.60
9219;DHT22;4644;48.858;9.184;2023-06-19T11:40:10;32.70;57.00
9219;DHT22;4644;48.858;9.184;2023-06-19T11:42:45;32.50;60.40
9219;DHT22;4644;48.858;9.184;2023-06-19T11:45:12;32.50;57.40
9219;DHT22;4644;48.858;9.184;2023-06-19T11:47:39;32.70;57.80
9219;DHT22;4644;48.858;9.184;2023-06-19T11:50:08;33.00;57.40
9219;DHT22;4644;48.858;9.184;2023-06-19T11:52:35;33.00;56.70
9219;DHT22;4644;48.858;9.184;2023-06-19T11:55:02;33.60;55.80
9219;DHT22;4644;48.858;9.184;2023-06-19T11:57:30;33.60;55.40
9219;DHT22;4644;48.858;9.184;2023-06-19T11:59:58;33.90;54.20
9219;DHT22;4644;48.858;9.184;2023-06-19T12:02:25;33.60;54.70
9219;DHT22;4644;48.858;9.184;2023-06-19T12:04:52;33.10;54.20
9219;DHT22;4644;48.858;9.184;2023-06-19T12:07:21;32.20;56.60
9219;DHT22;4644;48.858;9.184;2023-06-19T12:09:48;32.20;57.50
9219;DHT22;4644;48.858;9.184;2023-06-19T12:12:15;32.40;56.80
9219;DHT22;4644;48.858;9.184;2023-06-19T12:14:42;32.40;56.30
9219;DHT22;4644;48.858;9.184;2023-06-19T12:17:10;32.10;56.30
9219;DHT22;4644;48.858;9.184;2023-06-19T12:19:38;31.60;58.30
9219;DHT22;4644;48.858;9.184;2023-06-19T12:22:05;31.60;59.40
9219;DHT22;4644;48.858;9.184;2023-06-19T12:24:33;31.60;59.90
9219;DHT22;4644;48.858;9.184;2023-06-19T12:27:00;31.70;58.60
9219;DHT22;4644;48.858;9.184;2023-06-19T12:29:27;31.70;60.00
9219;DHT22;4644;48.858;9.184;2023-06-19T12:31:59;32.20;58.70
9219;DHT22;4644;48.858;9.184;2023-06-19T12:34:27;32.10;57.60
9219;DHT22;4644;48.858;9.184;2023-06-19T12:36:54;31.80;58.70
9219;DHT22;4644;48.858;9.184;2023-06-19T12:39:22;31.30;58.40
9219;DHT22;4644;48.858;9.184;2023-06-19T12:41:51;30.90;59.20
9219;DHT22;4644;48.858;9.184;2023-06-19T12:44:18;31.10;60.70
9219;DHT22;4644;48.858;9.184;2023-06-19T12:46:45;31.40;59.20
9219;DHT22;4644;48.858;9.184;2023-06-19T12:49:12;31.60;58.80
9219;DHT22;4644;48.858;9.184;2023-06-19T12:51:38;31.20;58.00
9219;DHT22;4644;48.858;9.184;2023-06-19T12:54:05;31.40;59.00
9219;DHT22;4644;48.858;9.184;2023-06-19T12:56:32;31.40;58.00
9219;DHT22;4644;48.858;9.184;2023-06-19T12:59:00;31.50;58.30
9219;DHT22;4644;48.858;9.184;2023-06-19T13:01:27;31.60;58.40
9219;DHT22;4644;48.858;9.184;2023-06-19T13:03:54;31.50;57.50
9219;DHT22;4644;48.858;9.184;2023-06-19T13:06:21;31.40;62.90
9219;DHT22;4644;48.858;9.184;2023-06-19T13:08:48;31.70;58.80
9219;DHT22;4644;48.858;9.184;2023-06-19T13:11:15;32.00;57.60
9219;DHT22;4644;48.858;9.184;2023-06-19T13:13:42;32.30;56.80
9219;DHT22;4644;48.858;9.184;2023-06-19T13:16:10;32.40;56.20
9219;DHT22;4644;48.858;9.184;2023-06-19T13:18:37;32.50;57.80
9219;DHT22;4644;48.858;9.184;2023-06-19T13:21:04;32.50;57.30
9219;DHT22;4644;48.858;9.184;2023-06-19T13:23:31;32.10;57.70
9219;DHT22;4644;48.858;9.184;2023-06-19T13:25:58;32.00;58.00
9219;DHT22;4644;48.858;9.184;2023-06-19T13:28:25;32.10;58.10
9219;DHT22;4644;48.858;9.184;2023-06-19T13:30:52;32.30;57.10
9219;DHT22;4644;48.858;9.184;2023-06-19T13:33:21;32.30;57.10
9219;DHT22;4644;48.858;9.184;2023-06-19T13:35:48;32.50;57.20
9219;DHT22;4644;48.858;9.184;2023-06-19T13:38:16;32.60;59.20
9219;DHT22;4644;48.858;9.184;2023-06-19T13:40:43;32.50;57.20
9219;DHT22;4644;48.858;9.184;2023-06-19T13:43:10;32.50;56.90
9219;DHT22;4644;48.858;9.184;2023-06-19T13:45:37;32.00;57.30
9219;DHT22;4644;48.858;9.184;2023-06-19T13:48:05;31.70;58.80
9219;DHT22;4644;48.858;9.184;2023-06-19T13:50:34;31.70;58.40
9219;DHT22;4644;48.858;9.184;2023-06-19T13:53:01;31.80;58.40
9219;DHT22;4644;48.858;9.184;2023-06-19T13:55:28;31.60;57.70
9219;DHT22;4644;48.858;9.184;2023-06-19T13:57:55;31.70;59.80
9219;DHT22;4644;48.858;9.184;2023-06-19T14:00:22;31.70;59.50
9219;DHT22;4644;48.858;9.184;2023-06-19T14:02:49;31.50;58.20
9219;DHT22;4644;48.858;9.184;2023-06-19T14:05:16;31.40;58.90
9219;DHT22;4644;48.858;9.184;2023-06-19T14:07:44;31.20;58.90
9219;DHT22;4644;48.858;9.184;2023-06-19T14:10:11;31.10;62.20
9219;DHT22;4644;48.858;9.184;2023-06-19T14:12:38;31.30;59.20
9219;DHT22;4644;48.858;9.184;2023-06-19T14:15:07;31.20;59.70
9219;DHT22;4644;48.858;9.184;2023-06-19T14:17:34;31.10;58.30
9219;DHT22;4644;48.858;9.184;2023-06-19T14:20:01;31.10;60.70
9219;DHT22;4644;48.858;9.184;2023-06-19T14:22:30;31.30;59.20
9219;DHT22;4644;48.858;9.184;2023-06-19T14:24:58;31.40;57.70
9219;DHT22;4644;48.858;9.184;2023-06-19T14:27:27;31.40;59.10
9219;DHT22;4644;48.858;9.184;2023-06-19T14:29:54;31.50;57.90
9219;DHT22;4644;48.858;9.184;2023-06-19T14:32:22;31.70;58.00
9219;DHT22;4644;48.858;9.184;2023-06-19T14:34:49;31.70;57.70
9219;DHT22;4644;48.858;9.184;2023-06-19T14:37:16;31.80;56.80
9219;DHT22;4644;48.858;9.184;2023-06-19T14:39:43;31.80;57.40
9219;DHT22;4644;48.858;9.184;2023-06-19T14:42:12;31.70;57.60
9219;DHT22;4644;48.858;9.184;2023-06-19T14:44:38;31.50;57.80
9219;DHT22;4644;48.858;9.184;2023-06-19T14:47:05;31.40;59.80
9219;DHT22;4644;48.858;9.184;2023-06-19T14:49:33;31.50;58.20
9219;DHT22;4644;48.858;9.184;2023-06-19T14:52:00;31.50;58.20
9219;DHT22;4644;48.858;9.184;2023-06-19T14:54:27;32.00;56.70
9219;DHT22;4644;48.858;9.184;2023-06-19T14:56:54;32.40;55.90
9219;DHT22;4644;48.858;9.184;2023-06-19T14:59:22;32.70;56.10
9219;DHT22;4644;48.858;9.184;2023-06-19T15:01:49;32.60;54.00
9219;DHT22;4644;48.858;9.184;2023-06-19T15:04:16;32.50;55.70
9219;DHT22;4644;48.858;9.184;2023-06-19T15:06:43;32.40;57.20
9219;DHT22;4644;48.858;9.184;2023-06-19T15:09:10;33.00;54.80
9219;DHT22;4644;48.858;9.184;2023-06-19T15:11:37;34.00;52.20
9219;DHT22;4644;48.858;9.184;2023-06-19T15:14:04;34.40;51.70
9219;DHT22;4644;48.858;9.184;2023-06-19T15:16:33;35.00;52.20
9219;DHT22;4644;48.858;9.184;2023-06-19T15:18:59;36.00;50.70
9219;DHT22;4644;48.858;9.184;2023-06-19T15:21:26;36.30;49.10
9219;DHT22;4644;48.858;9.184;2023-06-19T15:23:54;37.20;48.30
9219;DHT22;4644;48.858;9.184;2023-06-19T15:26:22;37.70;47.80
9219;DHT22;4644;48.858;9.184;2023-06-19T15:28:49;37.80;47.10
9219;DHT22;4644;48.858;9.184;2023-06-19T15:31:20;37.50;48.20
9219;DHT22;4644;48.858;9.184;2023-06-19T15:33:48;37.00;47.90
9219;DHT22;4644;48.858;9.184;2023-06-19T15:36:15;36.80;47.50
9219;DHT22;4644;48.858;9.184;2023-06-19T15:38:42;36.00;48.60
9219;DHT22;4644;48.858;9.184;2023-06-19T15:41:10;35.10;49.00
9219;DHT22;4644;48.858;9.184;2023-06-19T15:43:37;34.10;53.60
9219;DHT22;4644;48.858;9.184;2023-06-19T15:46:04;33.10;52.60
9219;DHT22;4644;48.858;9.184;2023-06-19T15:48:33;32.40;53.90
9219;DHT22;4644;48.858;9.184;2023-06-19T15:51:01;32.00;56.70
9219;DHT22;4644;48.858;9.184;2023-06-19T15:53:29;31.90;55.90
9219;DHT22;4644;48.858;9.184;2023-06-19T15:55:56;32.10;55.30
9219;DHT22;4644;48.858;9.184;2023-06-19T15:58:22;31.80;56.00
9219;DHT22;4644;48.858;9.184;2023-06-19T16:00:49;31.50;56.60
9219;DHT22;4644;48.858;9.184;2023-06-19T16:03:18;31.20;58.00
9219;DHT22;4644;48.858;9.184;2023-06-19T16:05:45;30.90;57.90